Time;durP1;ratioP1;P1;durP2;ratioP2;P2;SDS_P1;SDS_P2;PMS_P1;PMS_P2;Temp;Humidity;BMP_temperature;BMP_pressure;BME280_temperature;BME280_humidity;BME280_pressure;Samples;Min_cycle;Max_cycle;Signal;HPM_P1;HPM_P2
2023/01/17 00:00:20;;;;;;;339.60;151.77;;;;;;;;;;1035191;28;20032;-74
2023/01/17 00:00:51;;;;;;;342.90;157.90;;;;;;;;;;1035713;28;20026;-74
2023/01/17 00:01:22;;;;;;;327.77;151.07;;;;;;;;;;1035372;28;20120;-74
2023/01/17 00:01:53;;;;;;;344.33;153.90;;;;;;;;;;1035787;28;20052;-74
2023/01/17 00:02:23;;;;;;;337.20;145.55;;;;;;;;;;1035581;28;20470;-74
2023/01/17 00:02:54;;;;;;;319.60;147.90;;;;;;;;;;1034974;28;20120;-74
2023/01/17 00:03:24;;;;;;;320.45;152.95;;;;;;;;;;1031074;28;20018;-74
2023/01/17 00:09:55;;;;;;;339.20;145.18;;;;;;;;;;1035317;28;20022;-74
2023/01/17 00:10:27;;;;;;;339.88;146.68;;;;;;;;;;1035582;28;20025;-74
2023/01/17 00:10:57;;;;;;;328.25;155.32;;;;;;;;;;1035507;28;20091;-74
2023/01/17 00:11:28;;;;;;;345.73;154.60;;;;;;;;;;1035493;28;20025;-74
2023/01/17 00:12:00;;;;;;;335.55;154.52;;;;;;;;;;1034818;28;20108;-74
2023/01/17 00:12:30;;;;;;;331.05;157.98;;;;;;;;;;1035230;28;20014;-74
2023/01/17 00:13:02;;;;;;;323.98;156.55;;;;;;;;;;1035558;28;20025;-74
2023/01/17 00:13:32;;;;;;;337.25;145.88;;;;;;;;;;1035067;28;20026;-74
2023/01/17 00:14:03;;;;;;;310.83;138.85;;;;;;;;;;1035314;28;20025;-74
2023/01/17 00:14:33;;;;;;;318.80;150.43;;;;;;;;;;1035443;28;20484;-74
2023/01/17 00:15:04;;;;;;;315.52;150.55;;;;;;;;;;1035442;28;20025;-74
2023/01/17 00:15:36;;;;;;;343.45;154.23;;;;;;;;;;1035051;28;20041;-74
2023/01/17 00:16:07;;;;;;;363.35;158.07;;;;;;;;;;1035121;28;20026;-74
2023/01/17 00:16:37;;;;;;;341.50;154.07;;;;;;;;;;1035428;28;20037;-74
2023/01/17 00:17:08;;;;;;;333.80;158.77;;;;;;;;;;1035039;28;20022;-74
2023/01/17 00:17:38;;;;;;;350.73;153.23;;;;;;;;;;1035164;28;20025;-74
2023/01/17 00:18:09;;;;;;;350.52;158.60;;;;;;;;;;1035330;28;20140;-74
2023/01/17 00:26:01;;;;;;;340.02;149.43;;;;;;;;;;1035374;28;20022;-74
2023/01/17 00:26:03;;;;;;;338.52;145.93;;;;;;;;;;1034743;28;20794;-74
2023/01/17 00:26:34;;;;;;;353.60;147.25;;;;;;;;;;1034846;28;20018;-74
2023/01/17 01:33:52;;;;;;;302.70;137.68;;;;;;;;;;1034658;28;20026;-73
2023/01/17 01:34:22;;;;;;;311.00;146.63;;;;;;;;;;1035578;28;20418;-75
2023/01/17 01:34:53;;;;;;;327.73;150.45;;;;;;;;;;1035599;28;20065;-74
2023/01/17 01:35:24;;;;;;;329.95;145.10;;;;;;;;;;1035388;28;20112;-73
2023/01/17 01:35:54;;;;;;;327.33;151.07;;;;;;;;;;1035831;28;20029;-73
2023/01/17 01:36:25;;;;;;;315.17;147.52;;;;;;;;;;1035676;28;20437;-73
2023/01/17 01:36:55;;;;;;;327.10;154.23;;;;;;;;;;1035860;28;20022;-73
2023/01/17 01:37:26;;;;;;;315.02;150.60;;;;;;;;;;1035693;28;20168;-73
2023/01/17 01:37:56;;;;;;;336.48;151.50;;;;;;;;;;1035786;28;20080;-73
2023/01/17 01:38:27;;;;;;;323.92;150.13;;;;;;;;;;1034147;28;20557;-73
2023/01/17 01:38:57;;;;;;;364.85;156.23;;;;;;;;;;1034471;28;20413;-73
2023/01/17 01:39:28;;;;;;;368.85;161.60;;;;;;;;;;1034571;28;20049;-73
2023/01/17 01:39:58;;;;;;;325.33;145.45;;;;;;;;;;1030974;28;20026;-75
2023/01/17 01:40:29;;;;;;;345.02;159.40;;;;;;;;;;1031625;28;20057;-74
2023/01/17 01:40:59;;;;;;;332.60;162.77;;;;;;;;;;1031535;28;20434;-75
2023/01/17 01:41:30;;;;;;;365.75;158.30;;;;;;;;;;1035538;28;20029;-75
2023/01/17 01:42:00;;;;;;;323.50;151.10;;;;;;;;;;1035914;28;20026;-75
2023/01/17 01:42:31;;;;;;;365.67;168.05;;;;;;;;;;1035932;28;20386;-75
2023/01/17 01:43:04;;;;;;;362.95;158.68;;;;;;;;;;1035944;28;20116;-75
2023/01/17 01:43:48;;;;;;;369.98;159.73;;;;;;;;;;1035877;28;20064;-74
2023/01/17 01:44:42;;;;;;;326.02;137.75;;;;;;;;;;1035328;28;20097;-74
2023/01/17 01:45:16;;;;;;;310.25;140.27;;;;;;;;;;1036471;28;20105;-73
2023/01/17 01:45:51;;;;;;;292.73;140.98;;;;;;;;;;1035035;28;20117;-74
2023/01/17 01:46:24;;;;;;;335.92;155.93;;;;;;;;;;1036123;28;21182;-73
2023/01/17 01:46:55;;;;;;;313.95;145.77;;;;;;;;;;1035925;28;20022;-73
2023/01/17 01:47:28;;;;;;;322.98;140.82;;;;;;;;;;1035359;28;20084;-74
2023/01/17 01:48:25;;;;;;;311.67;140.23;;;;;;;;;;1035901;28;20022;-73
2023/01/17 01:48:58;;;;;;;301.27;138.60;;;;;;;;;;1023354;29;20498;-73
2023/01/17 01:49:29;;;;;;;298.40;138.13;;;;;;;;;;1025058;28;20610;-73
2023/01/17 01:50:01;;;;;;;318.52;143.18;;;;;;;;;;1035467;28;20018;-73
2023/01/17 01:50:33;;;;;;;319.27;145.00;;;;;;;;;;1035521;28;20022;-73
2023/01/17 01:51:05;;;;;;;325.85;144.75;;;;;;;;;;1034686;28;20026;-73
2023/01/17 01:51:44;;;;;;;310.92;136.52;;;;;;;;;;1035569;28;20021;-73
2023/01/17 01:52:16;;;;;;;303.75;138.90;;;;;;;;;;1035772;28;20026;-73
2023/01/17 01:52:50;;;;;;;275.25;128.38;;;;;;;;;;1034188;28;20076;-73
2023/01/17 01:53:21;;;;;;;308.10;141.38;;;;;;;;;;1035239;28;20470;-73
2023/01/17 01:53:58;;;;;;;294.90;136.40;;;;;;;;;;1035562;28;20033;-74
2023/01/17 01:54:41;;;;;;;299.45;128.95;;;;;;;;;;1035396;28;20450;-73
2023/01/17 01:55:17;;;;;;;328.50;146.60;;;;;;;;;;1035450;28;20498;-73
2023/01/17 01:55:49;;;;;;;336.75;150.02;;;;;;;;;;1034629;28;20079;-73
2023/01/17 01:56:22;;;;;;;323.42;140.82;;;;;;;;;;1035560;28;20382;-73
2023/01/17 01:56:53;;;;;;;339.20;158.07;;;;;;;;;;1035516;28;20109;-73
2023/01/17 01:57:26;;;;;;;328.35;156.27;;;;;;;;;;1035265;28;20429;-73
2023/01/17 01:58:01;;;;;;;330.45;148.27;;;;;;;;;;1035602;28;20352;-73
2023/01/17 01:58:33;;;;;;;326.65;148.80;;;;;;;;;;1035513;28;20022;-73
2023/01/17 01:59:06;;;;;;;322.67;146.23;;;;;;;;;;1034808;28;20060;-73
2023/01/17 01:59:38;;;;;;;339.77;146.52;;;;;;;;;;1035665;28;20032;-73
2023/01/17 02:00:15;;;;;;;338.08;149.88;;;;;;;;;;1035852;28;20013;-73
2023/01/17 02:00:45;;;;;;;319.30;143.35;;;;;;;;;;1035700;28;20033;-73
2023/01/17 02:01:16;;;;;;;314.20;141.73;;;;;;;;;;1035331;28;20053;-73
2023/01/17 02:01:49;;;;;;;333.10;141.63;;;;;;;;;;1034307;28;20120;-73
2023/01/17 02:02:19;;;;;;;304.83;142.13;;;;;;;;;;1035818;28;20033;-73
2023/01/17 02:02:50;;;;;;;301.27;135.68;;;;;;;;;;1035590;28;20022;-73
2023/01/17 02:03:29;;;;;;;313.05;140.38;;;;;;;;;;1035216;28;20870;-74
2023/01/17 02:04:01;;;;;;;282.08;134.38;;;;;;;;;;1034927;28;20140;-74
2023/01/17 02:04:31;;;;;;;327.33;142.05;;;;;;;;;;1035320;28;20096;-74
2023/01/17 02:05:02;;;;;;;299.40;138.15;;;;;;;;;;1032804;28;20026;-73
2023/01/17 02:05:34;;;;;;;296.95;137.65;;;;;;;;;;1031164;28;20128;-73
2023/01/17 02:06:13;;;;;;;296.90;142.30;;;;;;;;;;1031464;28;20030;-73
2023/01/17 02:06:50;;;;;;;304.88;134.52;;;;;;;;;;1032662;28;20018;-73
2023/01/17 02:07:24;;;;;;;310.35;140.38;;;;;;;;;;1034941;28;20044;-73
2023/01/17 02:08:18;;;;;;;287.90;139.32;;;;;;;;;;1035979;28;20044;-73
2023/01/17 02:08:48;;;;;;;293.77;129.07;;;;;;;;;;1031741;28;20443;-73
2023/01/17 02:09:19;;;;;;;262.30;127.80;;;;;;;;;;1035852;28;20026;-74
2023/01/17 02:09:50;;;;;;;296.60;131.07;;;;;;;;;;1035652;28;20033;-74
2023/01/17 02:10:21;;;;;;;297.75;137.13;;;;;;;;;;1035780;28;20018;-74
2023/01/17 02:10:52;;;;;;;307.55;129.45;;;;;;;;;;1035807;28;20113;-74
2023/01/17 02:11:22;;;;;;;274.65;132.40;;;;;;;;;;1035155;28;20025;-74
2023/01/17 02:11:53;;;;;;;296.75;130.98;;;;;;;;;;1035398;28;20506;-73
2023/01/17 02:12:24;;;;;;;281.23;136.05;;;;;;;;;;1035742;28;20022;-73
2023/01/17 02:12:54;;;;;;;302.80;138.00;;;;;;;;;;1035705;28;20064;-73
2023/01/17 02:13:27;;;;;;;300.13;133.32;;;;;;;;;;1035129;28;20032;-73
2023/01/17 02:13:57;;;;;;;280.90;133.85;;;;;;;;;;1035795;28;20418;-74
2023/01/17 02:14:28;;;;;;;289.58;130.18;;;;;;;;;;1035808;28;20022;-73
2023/01/17 02:14:58;;;;;;;288.20;127.72;;;;;;;;;;1035561;28;20112;-73
2023/01/17 02:15:31;;;;;;;290.63;130.05;;;;;;;;;;1035588;28;20021;-73
2023/01/17 02:16:12;;;;;;;290.50;131.30;;;;;;;;;;1035921;28;20026;-73
2023/01/17 02:16:46;;;;;;;266.83;128.05;;;;;;;;;;1035429;28;20068;-73
2023/01/17 02:17:24;;;;;;;290.13;126.70;;;;;;;;;;1035506;28;20037;-73
2023/01/17 02:18:05;;;;;;;278.38;124.32;;;;;;;;;;1035822;28;20025;-73
2023/01/17 02:18:54;;;;;;;266.27;125.05;;;;;;;;;;1034677;28;20030;-73
2023/01/17 02:19:43;;;;;;;276.05;124.30;;;;;;;;;;1035052;28;20399;-73
2023/01/17 02:20:32;;;;;;;271.85;118.85;;;;;;;;;;1035302;28;20423;-73
2023/01/17 02:21:14;;;;;;;239.85;108.05;;;;;;;;;;1034978;28;20026;-73
2023/01/17 02:21:53;;;;;;;257.75;118.30;;;;;;;;;;1035651;28;20021;-73
2023/01/17 02:22:53;;;;;;;277.33;125.43;;;;;;;;;;1035872;28;20044;-73
2023/01/17 02:23:36;;;;;;;228.82;107.45;;;;;;;;;;1022482;29;20115;-73
2023/01/17 02:24:12;;;;;;;262.50;115.53;;;;;;;;;;1035772;28;20029;-73
2023/01/17 02:25:01;;;;;;;255.55;114.30;;;;;;;;;;1034013;28;20022;-73
2023/01/17 02:25:41;;;;;;;238.90;107.55;;;;;;;;;;1033157;28;20057;-73
2023/01/17 02:26:30;;;;;;;247.27;106.90;;;;;;;;;;1032762;28;20056;-74
2023/01/17 02:27:06;;;;;;;276.55;112.25;;;;;;;;;;1033593;28;20359;-73
2023/01/17 02:27:37;;;;;;;236.50;110.03;;;;;;;;;;1034793;28;20026;-74
2023/01/17 02:28:26;;;;;;;279.38;120.18;;;;;;;;;;1031763;28;20518;-73
2023/01/17 02:29:01;;;;;;;241.13;111.63;;;;;;;;;;1034958;28;20390;-73
2023/01/17 02:29:50;;;;;;;265.55;113.82;;;;;;;;;;1034957;28;20029;-73
2023/01/17 02:30:23;;;;;;;255.45;108.60;;;;;;;;;;1034346;28;21242;-75
2023/01/17 02:30:57;;;;;;;241.68;108.78;;;;;;;;;;1034326;28;20117;-73
2023/01/17 02:31:48;;;;;;;260.35;116.32;;;;;;;;;;1034845;28;20022;-73
2023/01/17 02:32:24;;;;;;;245.20;111.20;;;;;;;;;;1035775;28;20056;-73
2023/01/17 02:33:14;;;;;;;251.20;113.45;;;;;;;;;;1035687;28;20056;-73
2023/01/17 02:33:49;;;;;;;243.23;110.70;;;;;;;;;;1034698;28;20033;-73
2023/01/17 02:34:27;;;;;;;261.42;118.20;;;;;;;;;;1028003;28;20580;-74
2023/01/17 02:35:00;;;;;;;246.00;109.45;;;;;;;;;;1028921;28;20026;-73
2023/01/17 02:35:34;;;;;;;251.63;117.32;;;;;;;;;;1034041;28;20028;-74
2023/01/17 02:36:13;;;;;;;251.13;119.47;;;;;;;;;;1035268;28;20026;-73
2023/01/17 02:36:48;;;;;;;255.57;115.03;;;;;;;;;;1033068;28;20530;-73
2023/01/17 02:37:22;;;;;;;287.58;123.97;;;;;;;;;;1033046;28;20113;-73
2023/01/17 02:38:10;;;;;;;274.35;123.22;;;;;;;;;;1031696;28;20132;-73
2023/01/17 02:38:52;;;;;;;282.17;123.32;;;;;;;;;;1033301;28;20041;-74
2023/01/17 02:39:27;;;;;;;273.17;128.85;;;;;;;;;;1033684;28;20149;-74
2023/01/17 02:40:18;;;;;;;304.42;134.38;;;;;;;;;;1034782;28;20036;-74
2023/01/17 02:40:52;;;;;;;256.38;114.28;;;;;;;;;;1034446;28;20398;-74
2023/01/17 02:41:31;;;;;;;253.90;111.97;;;;;;;;;;1029096;28;20026;-74
2023/01/17 02:42:05;;;;;;;215.18;103.00;;;;;;;;;;1034214;28;20563;-74
2023/01/17 02:42:41;;;;;;;213.93;102.78;;;;;;;;;;1033564;28;20447;-73
2023/01/17 02:43:13;;;;;;;249.63;113.15;;;;;;;;;;1034426;28;20025;-74
2023/01/17 02:43:47;;;;;;;209.15;100.35;;;;;;;;;;1035009;28;20022;-74
2023/01/17 02:44:19;;;;;;;218.77;104.47;;;;;;;;;;1034252;28;20030;-73
2023/01/17 02:44:49;;;;;;;212.05;95.60;;;;;;;;;;1035586;28;20436;-74
2023/01/17 02:45:20;;;;;;;275.42;130.88;;;;;;;;;;1033974;28;20140;-73
2023/01/17 02:45:50;;;;;;;270.75;126.10;;;;;;;;;;1034409;28;20025;-73
2023/01/17 02:46:21;;;;;;;289.77;127.03;;;;;;;;;;1033115;28;20026;-73
2023/01/17 02:46:56;;;;;;;289.45;120.68;;;;;;;;;;1034409;28;20018;-74
2023/01/17 02:47:28;;;;;;;249.75;126.60;;;;;;;;;;1031168;28;20056;-74
2023/01/17 02:47:59;;;;;;;278.75;126.20;;;;;;;;;;1033204;28;20025;-74
2023/01/17 02:48:31;;;;;;;272.75;130.93;;;;;;;;;;1032631;28;20018;-74
2023/01/17 02:49:01;;;;;;;295.88;137.38;;;;;;;;;;1034168;28;20033;-74
2023/01/17 02:49:32;;;;;;;311.13;142.30;;;;;;;;;;1033600;28;20053;-74
2023/01/17 02:50:05;;;;;;;300.20;138.68;;;;;;;;;;1034068;28;20894;-74
2023/01/17 02:51:02;;;;;;;301.70;139.65;;;;;;;;;;1034184;28;20438;-74
2023/01/17 02:51:44;;;;;;;298.67;128.80;;;;;;;;;;1032514;28;20518;-74
2023/01/17 02:52:25;;;;;;;303.38;132.57;;;;;;;;;;1034101;28;20482;-74
2023/01/17 02:53:08;;;;;;;271.70;122.13;;;;;;;;;;1034332;28;20438;-74
2023/01/17 02:53:57;;;;;;;313.20;139.50;;;;;;;;;;1031576;28;20022;-74
2023/01/17 02:54:42;;;;;;;304.42;129.35;;;;;;;;;;1030390;28;20022;-74
2023/01/17 02:55:31;;;;;;;305.00;130.40;;;;;;;;;;1033987;28;20057;-74
2023/01/17 02:56:10;;;;;;;310.23;138.73;;;;;;;;;;1035117;28;20021;-73
2023/01/17 02:56:49;;;;;;;261.55;121.75;;;;;;;;;;1033941;28;20037;-74
2023/01/17 02:57:54;;;;;;;299.75;127.07;;;;;;;;;;1032811;28;20022;-74
2023/01/17 02:58:28;;;;;;;278.30;132.02;;;;;;;;;;1018747;29;20132;-74
2023/01/17 02:59:07;;;;;;;294.08;129.70;;;;;;;;;;1021319;29;20461;-74
2023/01/17 02:59:44;;;;;;;317.10;143.05;;;;;;;;;;1017800;29;20583;-74
2023/01/17 03:00:20;;;;;;;290.88;138.82;;;;;;;;;;1018816;29;20584;-74
2023/01/17 03:01:09;;;;;;;322.63;140.68;;;;;;;;;;1018092;29;20050;-74
2023/01/17 03:02:00;;;;;;;348.73;151.05;;;;;;;;;;1034063;28;20028;-74
2023/01/17 03:02:42;;;;;;;320.98;139.80;;;;;;;;;;1020907;28;20035;-73
2023/01/17 03:03:23;;;;;;;325.35;148.98;;;;;;;;;;1032333;28;20075;-74
2023/01/17 03:04:09;;;;;;;296.00;140.88;;;;;;;;;;1029603;28;20136;-74
2023/01/17 03:04:44;;;;;;;304.52;141.30;;;;;;;;;;1032888;28;20033;-74
2023/01/17 03:05:17;;;;;;;326.75;142.00;;;;;;;;;;1033427;28;20068;-73
2023/01/17 03:05:57;;;;;;;316.23;139.02;;;;;;;;;;1034282;28;20029;-73
2023/01/17 03:06:46;;;;;;;348.27;147.52;;;;;;;;;;1032483;28;20605;-74
2023/01/17 03:07:20;;;;;;;283.80;132.63;;;;;;;;;;1032815;28;20029;-74
2023/01/17 03:07:51;;;;;;;306.85;135.15;;;;;;;;;;1032783;28;20052;-74
2023/01/17 03:08:22;;;;;;;331.02;142.05;;;;;;;;;;1033008;28;20028;-74
2023/01/17 03:08:53;;;;;;;300.88;139.35;;;;;;;;;;1034733;28;20064;-74
2023/01/17 03:09:24;;;;;;;329.40;138.05;;;;;;;;;;1032872;28;20443;-74
2023/01/17 03:10:00;;;;;;;297.63;145.35;;;;;;;;;;1029912;28;20050;-73
2023/01/17 03:10:32;;;;;;;328.65;141.93;;;;;;;;;;1030295;28;20144;-74
2023/01/17 03:11:03;;;;;;;339.05;147.63;;;;;;;;;;1033853;28;20025;-74
2023/01/17 03:11:34;;;;;;;337.27;147.73;;;;;;;;;;1033362;28;20622;-73
2023/01/17 03:12:04;;;;;;;339.88;145.35;;;;;;;;;;1033479;28;20030;-73
2023/01/17 03:12:36;;;;;;;350.05;152.98;;;;;;;;;;1033351;28;20579;-73
2023/01/17 03:13:06;;;;;;;350.25;155.43;;;;;;;;;;1033859;28;20053;-74
2023/01/17 03:13:37;;;;;;;355.40;149.15;;;;;;;;;;1031184;28;20631;-74
2023/01/17 03:14:07;;;;;;;349.85;143.65;;;;;;;;;;1029492;28;20026;-74
2023/01/17 03:14:38;;;;;;;352.50;148.55;;;;;;;;;;1029582;28;20022;-73
2023/01/17 03:15:10;;;;;;;359.63;155.68;;;;;;;;;;1033500;28;20108;-74
2023/01/17 03:15:41;;;;;;;365.55;156.07;;;;;;;;;;1033904;28;20026;-74
2023/01/17 03:16:18;;;;;;;367.00;155.23;;;;;;;;;;1033425;28;20021;-74
2023/01/17 03:16:49;;;;;;;353.83;153.43;;;;;;;;;;1034175;28;20530;-74
2023/01/17 03:17:20;;;;;;;366.05;155.80;;;;;;;;;;1033694;28;20021;-73
2023/01/17 03:17:52;;;;;;;337.08;153.90;;;;;;;;;;1034680;28;20030;-74
2023/01/17 03:18:22;;;;;;;359.77;150.80;;;;;;;;;;1033432;28;20032;-74
2023/01/17 03:18:53;;;;;;;350.15;152.07;;;;;;;;;;1033853;28;20022;-74
2023/01/17 03:19:23;;;;;;;374.13;161.38;;;;;;;;;;1033511;28;20096;-74
2023/01/17 03:19:54;;;;;;;357.60;156.45;;;;;;;;;;1034624;28;20025;-74
2023/01/17 03:20:24;;;;;;;350.98;157.80;;;;;;;;;;1029372;28;20857;-74
2023/01/17 03:20:55;;;;;;;353.63;157.27;;;;;;;;;;1034994;28;20441;-74
2023/01/17 03:21:25;;;;;;;360.92;161.25;;;;;;;;;;1033551;28;20025;-74
2023/01/17 03:21:56;;;;;;;363.20;165.80;;;;;;;;;;1034500;28;20494;-74
2023/01/17 03:22:27;;;;;;;358.63;157.07;;;;;;;;;;1033987;28;20045;-74
2023/01/17 03:22:58;;;;;;;348.00;158.88;;;;;;;;;;1035322;28;20026;-73
2023/01/17 03:23:28;;;;;;;349.20;163.32;;;;;;;;;;1031743;28;20103;-74
2023/01/17 03:23:59;;;;;;;371.02;168.15;;;;;;;;;;1034131;28;20041;-74
2023/01/17 03:24:29;;;;;;;396.27;173.70;;;;;;;;;;1034383;28;20371;-74
2023/01/17 03:25:00;;;;;;;398.48;176.73;;;;;;;;;;1033040;28;20057;-73
2023/01/17 03:25:31;;;;;;;406.52;172.07;;;;;;;;;;1032495;28;20124;-73
2023/01/17 03:26:01;;;;;;;368.10;171.88;;;;;;;;;;1034660;28;20414;-73
2023/01/17 03:26:32;;;;;;;380.90;170.77;;;;;;;;;;1032530;28;20343;-74
2023/01/17 03:27:02;;;;;;;374.25;173.88;;;;;;;;;;1034189;28;20120;-74
2023/01/17 03:27:33;;;;;;;414.52;180.82;;;;;;;;;;1029263;28;20108;-74
2023/01/17 03:28:04;;;;;;;397.33;181.02;;;;;;;;;;1029864;28;20065;-75
2023/01/17 03:28:34;;;;;;;410.80;178.45;;;;;;;;;;1029725;28;20030;-74
2023/01/17 03:29:05;;;;;;;413.30;179.93;;;;;;;;;;1030572;28;20108;-75
2023/01/17 03:29:35;;;;;;;392.02;174.55;;;;;;;;;;1033905;28;20045;-75
2023/01/17 03:30:06;;;;;;;405.13;175.70;;;;;;;;;;1034327;28;20060;-75
2023/01/17 03:30:37;;;;;;;430.50;189.43;;;;;;;;;;1033763;28;20022;-74
2023/01/17 03:31:07;;;;;;;400.42;177.18;;;;;;;;;;1034434;28;20030;-74
2023/01/17 03:31:38;;;;;;;403.10;177.52;;;;;;;;;;1033886;28;20468;-74
2023/01/17 03:32:08;;;;;;;417.70;188.57;;;;;;;;;;1030315;28;20037;-75
2023/01/17 03:32:39;;;;;;;382.35;174.30;;;;;;;;;;1032148;28;20561;-75
2023/01/17 03:33:09;;;;;;;357.77;161.88;;;;;;;;;;1034004;28;20033;-76
2023/01/17 03:33:40;;;;;;;379.27;163.27;;;;;;;;;;1028923;28;20059;-74
2023/01/17 03:34:10;;;;;;;370.60;164.75;;;;;;;;;;1030356;28;20084;-74
2023/01/17 03:34:41;;;;;;;381.90;167.68;;;;;;;;;;1028969;28;20021;-74
2023/01/17 03:35:11;;;;;;;393.25;159.07;;;;;;;;;;1028680;28;20068;-74
2023/01/17 03:35:43;;;;;;;388.00;168.27;;;;;;;;;;1029626;28;20026;-75
2023/01/17 03:36:14;;;;;;;397.40;173.20;;;;;;;;;;1028764;28;20797;-74
2023/01/17 03:36:44;;;;;;;388.83;175.35;;;;;;;;;;1031323;28;20133;-74
2023/01/17 03:37:15;;;;;;;407.95;174.40;;;;;;;;;;1031828;28;20026;-75
2023/01/17 03:37:45;;;;;;;364.10;175.48;;;;;;;;;;1032511;28;20030;-74
2023/01/17 03:38:16;;;;;;;379.63;171.32;;;;;;;;;;1032221;28;20532;-74
2023/01/17 03:38:46;;;;;;;350.65;162.23;;;;;;;;;;1033716;28;20862;-74
2023/01/17 03:39:17;;;;;;;370.73;171.13;;;;;;;;;;1030632;28;20096;-74
2023/01/17 03:39:48;;;;;;;391.35;166.40;;;;;;;;;;1026502;28;20502;-74
2023/01/17 03:40:18;;;;;;;367.63;165.32;;;;;;;;;;1029586;28;20493;-74
2023/01/17 03:40:49;;;;;;;374.25;168.05;;;;;;;;;;1026595;28;20075;-75
2023/01/17 03:41:19;;;;;;;362.60;166.20;;;;;;;;;;1029449;28;20805;-74
2023/01/17 03:41:50;;;;;;;360.70;163.30;;;;;;;;;;1032803;28;20025;-74
2023/01/17 03:42:20;;;;;;;379.90;154.07;;;;;;;;;;1034236;28;20478;-74
2023/01/17 03:42:51;;;;;;;352.15;160.20;;;;;;;;;;1034598;28;20908;-74
2023/01/17 03:43:21;;;;;;;363.42;163.23;;;;;;;;;;1033808;28;20156;-74
2023/01/17 03:43:52;;;;;;;380.70;160.43;;;;;;;;;;1034373;28;20029;-74
2023/01/17 03:44:22;;;;;;;372.23;163.40;;;;;;;;;;1032918;28;20034;-74
2023/01/17 03:44:53;;;;;;;361.05;152.95;;;;;;;;;;1034676;28;20067;-74
2023/01/17 03:45:24;;;;;;;399.05;171.05;;;;;;;;;;1033343;28;20017;-74
2023/01/17 03:46:01;;;;;;;361.55;170.70;;;;;;;;;;1034474;28;20022;-74
2023/01/17 03:46:31;;;;;;;388.35;172.43;;;;;;;;;;1033471;28;20029;-74
2023/01/17 03:47:02;;;;;;;377.98;173.80;;;;;;;;;;1033546;28;20022;-74
2023/01/17 03:47:33;;;;;;;363.70;173.63;;;;;;;;;;1032296;28;20088;-75
2023/01/17 03:48:05;;;;;;;389.05;167.27;;;;;;;;;;1034405;28;20120;-75
2023/01/17 03:48:35;;;;;;;356.33;166.27;;;;;;;;;;1029685;28;20030;-75
2023/01/17 03:49:06;;;;;;;381.63;172.63;;;;;;;;;;1030617;28;20034;-75
2023/01/17 03:49:39;;;;;;;370.40;168.45;;;;;;;;;;1034187;28;20018;-74
2023/01/17 03:50:11;;;;;;;333.70;157.68;;;;;;;;;;1030263;28;20077;-76
2023/01/17 03:50:41;;;;;;;363.05;163.75;;;;;;;;;;1030061;28;20022;-74
2023/01/17 03:51:12;;;;;;;396.23;178.00;;;;;;;;;;1029507;28;20027;-74
2023/01/17 03:51:42;;;;;;;367.70;163.48;;;;;;;;;;1029869;28;20029;-73
2023/01/17 03:52:13;;;;;;;375.92;164.48;;;;;;;;;;1032740;28;20024;-73
2023/01/17 03:52:44;;;;;;;384.38;167.07;;;;;;;;;;1035631;28;20072;-73
2023/01/17 03:53:14;;;;;;;365.40;163.57;;;;;;;;;;1034432;28;20026;-74
2023/01/17 03:53:45;;;;;;;378.60;164.98;;;;;;;;;;1033105;28;20026;-74
2023/01/17 03:54:18;;;;;;;360.38;162.20;;;;;;;;;;1027680;28;20010;-74
2023/01/17 03:54:48;;;;;;;359.25;160.02;;;;;;;;;;1031650;28;20455;-74
2023/01/17 03:55:19;;;;;;;346.20;157.25;;;;;;;;;;1033275;28;20056;-74
2023/01/17 03:55:50;;;;;;;342.80;162.65;;;;;;;;;;1032517;28;20474;-74
2023/01/17 03:56:20;;;;;;;377.48;161.70;;;;;;;;;;1031655;28;20030;-74
2023/01/17 03:56:52;;;;;;;348.58;161.15;;;;;;;;;;1032890;28;20026;-74
2023/01/17 03:57:22;;;;;;;365.40;166.02;;;;;;;;;;1032719;28;20025;-75
2023/01/17 03:57:53;;;;;;;386.40;170.85;;;;;;;;;;1033353;28;20022;-74
2023/01/17 03:58:24;;;;;;;368.52;165.68;;;;;;;;;;1034298;28;20037;-75
2023/01/17 03:58:57;;;;;;;371.38;168.20;;;;;;;;;;1035171;28;20025;-75
2023/01/17 03:59:28;;;;;;;375.77;165.60;;;;;;;;;;1035192;28;20022;-76
2023/01/17 03:59:58;;;;;;;377.35;169.60;;;;;;;;;;1035357;28;20021;-77
2023/01/17 04:00:29;;;;;;;381.38;165.30;;;;;;;;;;1036210;28;20108;-75
2023/01/17 04:00:59;;;;;;;370.98;164.00;;;;;;;;;;1031609;28;20168;-75
2023/01/17 04:01:30;;;;;;;391.92;173.52;;;;;;;;;;1032152;28;20030;-75
2023/01/17 04:02:01;;;;;;;368.23;167.18;;;;;;;;;;1031916;28;20129;-75
2023/01/17 04:02:31;;;;;;;371.02;162.07;;;;;;;;;;1027526;28;20023;-75
2023/01/17 04:03:02;;;;;;;358.50;161.68;;;;;;;;;;1032128;28;20022;-75
2023/01/17 04:03:32;;;;;;;365.60;161.38;;;;;;;;;;1033683;28;20034;-75
2023/01/17 04:04:03;;;;;;;355.73;164.20;;;;;;;;;;1035780;28;20529;-75
2023/01/17 04:04:33;;;;;;;380.60;174.43;;;;;;;;;;1035786;28;20022;-75
2023/01/17 04:05:04;;;;;;;337.17;154.95;;;;;;;;;;1036516;28;20018;-75
2023/01/17 04:05:35;;;;;;;388.95;174.05;;;;;;;;;;1034186;28;20022;-75
2023/01/17 04:06:05;;;;;;;352.67;161.13;;;;;;;;;;1035938;28;20375;-74
2023/01/17 04:06:36;;;;;;;359.25;165.52;;;;;;;;;;1035807;28;20120;-75
2023/01/17 04:07:06;;;;;;;371.52;169.55;;;;;;;;;;1032866;28;20125;-77
2023/01/17 04:07:37;;;;;;;351.48;165.32;;;;;;;;;;1033090;28;20156;-76
2023/01/17 04:08:08;;;;;;;380.02;173.32;;;;;;;;;;1034186;28;20018;-75
2023/01/17 04:08:38;;;;;;;370.77;166.15;;;;;;;;;;1033700;28;20029;-75
2023/01/17 04:09:09;;;;;;;371.63;171.98;;;;;;;;;;1033842;28;20053;-76
2023/01/17 04:09:39;;;;;;;371.02;169.43;;;;;;;;;;1032808;28;20049;-75
2023/01/17 04:10:10;;;;;;;348.27;168.77;;;;;;;;;;1034689;28;20017;-76
2023/01/17 04:10:40;;;;;;;350.92;165.25;;;;;;;;;;1038582;28;20026;-75
2023/01/17 04:11:11;;;;;;;351.98;163.00;;;;;;;;;;1038543;28;20021;-75
2023/01/17 04:11:42;;;;;;;392.10;169.90;;;;;;;;;;1038295;28;20035;-75
2023/01/17 04:12:13;;;;;;;349.50;164.52;;;;;;;;;;1033765;28;20033;-75
2023/01/17 04:12:44;;;;;;;338.38;164.93;;;;;;;;;;1033743;28;20033;-75
2023/01/17 04:13:15;;;;;;;339.83;160.85;;;;;;;;;;1034038;28;20048;-76
2023/01/17 04:13:46;;;;;;;366.92;167.25;;;;;;;;;;1030890;28;20040;-75
2023/01/17 04:14:16;;;;;;;345.85;170.13;;;;;;;;;;1028711;28;20037;-75
2023/01/17 04:14:47;;;;;;;362.25;167.15;;;;;;;;;;1033016;28;20022;-75
2023/01/17 04:15:17;;;;;;;392.05;169.57;;;;;;;;;;1031562;28;20157;-75
2023/01/17 04:15:49;;;;;;;330.88;150.20;;;;;;;;;;1031261;28;20711;-75
2023/01/17 04:16:20;;;;;;;354.67;157.25;;;;;;;;;;1031496;28;20064;-75
2023/01/17 04:16:51;;;;;;;364.10;164.15;;;;;;;;;;1029174;28;20023;-76
2023/01/17 04:17:22;;;;;;;337.23;150.35;;;;;;;;;;1032477;28;20148;-76
2023/01/17 04:17:52;;;;;;;341.83;156.00;;;;;;;;;;1029702;28;20061;-77
2023/01/17 04:18:23;;;;;;;328.75;159.82;;;;;;;;;;1029347;28;20405;-79
2023/01/17 04:18:54;;;;;;;355.73;157.75;;;;;;;;;;1033261;28;20088;-76
2023/01/17 04:19:25;;;;;;;341.17;154.25;;;;;;;;;;1031202;28;20324;-77
2023/01/17 04:19:55;;;;;;;341.42;159.20;;;;;;;;;;1038201;28;20144;-75
2023/01/17 04:20:29;;;;;;;358.50;168.35;;;;;;;;;;1033467;28;20026;-76
2023/01/17 04:21:00;;;;;;;343.50;167.30;;;;;;;;;;1034146;28;20478;-77
2023/01/17 04:21:31;;;;;;;374.73;167.98;;;;;;;;;;1035500;28;20105;-76
2023/01/17 04:22:01;;;;;;;342.90;155.20;;;;;;;;;;1033438;28;20045;-76
2023/01/17 04:22:32;;;;;;;361.85;163.30;;;;;;;;;;1035769;28;20025;-76
2023/01/17 04:23:03;;;;;;;362.63;165.93;;;;;;;;;;1034144;28;20379;-76
2023/01/17 04:23:33;;;;;;;356.63;160.43;;;;;;;;;;1033899;28;20113;-75
2023/01/17 04:24:04;;;;;;;350.98;158.10;;;;;;;;;;1035053;28;20513;-75
2023/01/17 04:24:35;;;;;;;326.73;152.07;;;;;;;;;;1035424;28;20042;-76
2023/01/17 04:25:05;;;;;;;349.45;163.57;;;;;;;;;;1034220;28;20578;-77
2023/01/17 04:25:36;;;;;;;324.92;153.07;;;;;;;;;;1028705;28;20121;-76
2023/01/17 04:26:08;;;;;;;347.33;157.60;;;;;;;;;;1029591;28;20030;-76
2023/01/17 04:26:38;;;;;;;329.25;151.95;;;;;;;;;;1033555;28;20489;-77
2023/01/17 04:27:09;;;;;;;332.70;156.82;;;;;;;;;;1029718;28;20023;-76
2023/01/17 04:27:40;;;;;;;328.27;151.90;;;;;;;;;;1033292;28;20021;-76
2023/01/17 04:28:11;;;;;;;357.00;164.85;;;;;;;;;;1028666;28;20038;-76
2023/01/17 04:28:41;;;;;;;315.50;149.13;;;;;;;;;;1028765;28;20030;-76